Hlavní strana
METAR-TAF:

METAR-TAF

Letiště :

Chartúm, Súdán

zeměpisná šířka: 15-36N, zeměpisná délka: 032-33E, výška: 382 m

Aktuální stav počasí

Zpráva byla vytvořena před 24 minutami, v 17:30 UTC
Severoseverozápadní vítr 15 kt
Teplota 27°C
Vlhkost vzduchu 15%
Tlak 1016 hPa
Viditelnost 10 km a více
Žádná oblačnost pod 1500 m, nevyskytují se cumulonimby.

METAR: HSSS 171730Z 33015KT CAVOK 27/M02 Q1016 NOSIG

Čas: 20:54 (17:54 UTC)

Předpověď počasí

Zpráva byla vytvořena před 54 minutami, v 17:00 UTC
Předpověď platná od 17 v 18 UTC do 18 v 24 UTC
Severní vítr 10 kt s nárazy do 20 kt
Viditelnost 10 km a více
Žádná oblačnost pod 1500 m, nevyskytují se cumulonimby.
Dočasný
od 17 v 20 UTC do 17 v 24 UTC
Viditelnost: 4000 m
zvířený písek
Dočasný
od 18 v 03 UTC do 18 v 09 UTC
Viditelnost: 6000 m

TAF: HSSS 171700Z 1718/1824 36010G20KT CAVOK TEMPO 1720/1724 4000 BLSA TEMPO 1803/1809 6000

Stav a předpovědi počasí z více než 4 000 letišť (zprávy METAR a TAF).

Červené a žluté tečky na mapě představují dostupné meteorologické stanice.

Když kurzor umístíte na tečku, zobrazí se název stanice.

Pak kliknutím zobrazíte stav a předpověď počasí.

Chcete-li změnit mapu, kliknutím na zelené tlačítko se znaménkem +mapu přiblížíte, kliknutím na zelené tlačítko se znaménkem – mapu oddálíte a kliknutím na zelené šipky přejdete na sousední mapy.


METAR-TAF: